sensor_id;sensor_type;location;lat;lon;timestamp;pressure;altitude;pressure_sealevel;temperature;humidity
46682;BME280;34101;53.430;-2.224;2023-09-19T00:01:52;99852.11;;;13.07;69.73
46682;BME280;34101;53.430;-2.224;2023-09-19T00:04:20;99847.55;;;12.72;70.34
46682;BME280;34101;53.430;-2.224;2023-09-19T00:06:50;99846.28;;;12.63;71.52
46682;BME280;34101;53.430;-2.224;2023-09-19T00:09:19;99843.78;;;13.01;69.97
46682;BME280;34101;53.430;-2.224;2023-09-19T00:11:46;99842.99;;;13.08;70.19
46682;BME280;34101;53.430;-2.224;2023-09-19T00:14:15;99833.23;;;13.24;69.66
46682;BME280;34101;53.430;-2.224;2023-09-19T00:16:43;99825.91;;;12.93;70.03
46682;BME280;34101;53.430;-2.224;2023-09-19T00:19:11;99822.37;;;13.09;69.94
46682;BME280;34101;53.430;-2.224;2023-09-19T00:21:40;99819.95;;;13.08;69.82
46682;BME280;34101;53.430;-2.224;2023-09-19T00:24:09;99813.31;;;13.23;69.34
46682;BME280;34101;53.430;-2.224;2023-09-19T00:26:38;99812.57;;;13.34;69.09
46682;BME280;34101;53.430;-2.224;2023-09-19T00:29:06;99813.74;;;13.12;69.26
46682;BME280;34101;53.430;-2.224;2023-09-19T00:31:35;99809.45;;;13.25;70.03
46682;BME280;34101;53.430;-2.224;2023-09-19T00:34:04;99812.52;;;13.36;69.12
46682;BME280;34101;53.430;-2.224;2023-09-19T00:36:32;99813.69;;;13.29;69.15
46682;BME280;34101;53.430;-2.224;2023-09-19T00:39:01;99820.06;;;13.34;69.47
46682;BME280;34101;53.430;-2.224;2023-09-19T00:41:29;99822.62;;;13.29;69.60
46682;BME280;34101;53.430;-2.224;2023-09-19T00:43:57;99834.58;;;13.06;70.13
46682;BME280;34101;53.430;-2.224;2023-09-19T00:46:25;99842.97;;;13.26;70.15
46682;BME280;34101;53.430;-2.224;2023-09-19T00:48:54;99838.29;;;13.25;69.95
46682;BME280;34101;53.430;-2.224;2023-09-19T00:51:23;99837.90;;;13.37;69.66
46682;BME280;34101;53.430;-2.224;2023-09-19T00:53:52;99838.78;;;13.26;70.39
46682;BME280;34101;53.430;-2.224;2023-09-19T00:56:21;99842.40;;;13.25;70.06
46682;BME280;34101;53.430;-2.224;2023-09-19T00:58:48;99839.36;;;13.33;70.01
46682;BME280;34101;53.430;-2.224;2023-09-19T01:01:22;99836.33;;;13.10;70.82
46682;BME280;34101;53.430;-2.224;2023-09-19T01:03:50;99835.37;;;13.09;71.17
46682;BME280;34101;53.430;-2.224;2023-09-19T01:06:18;99831.57;;;12.95;71.35
46682;BME280;34101;53.430;-2.224;2023-09-19T01:08:47;99821.23;;;13.21;70.61
46682;BME280;34101;53.430;-2.224;2023-09-19T01:11:20;99820.10;;;13.33;70.53
46682;BME280;34101;53.430;-2.224;2023-09-19T01:13:56;99832.60;;;13.30;70.66
46682;BME280;34101;53.430;-2.224;2023-09-19T01:16:35;99829.13;;;13.52;69.62
46682;BME280;34101;53.430;-2.224;2023-09-19T01:19:22;99830.83;;;13.42;69.31
46682;BME280;34101;53.430;-2.224;2023-09-19T01:22:00;99824.16;;;13.40;70.16
46682;BME280;34101;53.430;-2.224;2023-09-19T01:25:01;99820.78;;;13.63;68.95
46682;BME280;34101;53.430;-2.224;2023-09-19T01:27:57;99826.35;;;13.59;69.32
46682;BME280;34101;53.430;-2.224;2023-09-19T01:30:39;99827.46;;;13.73;69.29
46682;BME280;34101;53.430;-2.224;2023-09-19T01:33:08;99827.86;;;13.77;68.79
46682;BME280;34101;53.430;-2.224;2023-09-19T01:35:38;99824.15;;;13.75;69.00
46682;BME280;34101;53.430;-2.224;2023-09-19T01:38:06;99824.76;;;13.75;68.75
46682;BME280;34101;53.430;-2.224;2023-09-19T01:40:34;99818.57;;;13.71;69.23
46682;BME280;34101;53.430;-2.224;2023-09-19T01:43:15;99817.22;;;13.75;69.24
46682;BME280;34101;53.430;-2.224;2023-09-19T01:45:54;99821.47;;;13.73;69.14
46682;BME280;34101;53.430;-2.224;2023-09-19T01:48:35;99825.01;;;13.74;69.29
46682;BME280;34101;53.430;-2.224;2023-09-19T01:51:07;99824.51;;;13.74;69.02
46682;BME280;34101;53.430;-2.224;2023-09-19T01:53:45;99832.07;;;13.67;69.49
46682;BME280;34101;53.430;-2.224;2023-09-19T01:56:22;99830.28;;;13.69;69.54
46682;BME280;34101;53.430;-2.224;2023-09-19T01:58:56;99821.36;;;13.64;69.67
46682;BME280;34101;53.430;-2.224;2023-09-19T02:01:27;99815.09;;;13.70;69.48
46682;BME280;34101;53.430;-2.224;2023-09-19T02:03:56;99811.96;;;13.79;69.12
46682;BME280;34101;53.430;-2.224;2023-09-19T02:06:24;99810.99;;;13.72;68.57
46682;BME280;34101;53.430;-2.224;2023-09-19T02:08:54;99811.29;;;13.67;69.24
46682;BME280;34101;53.430;-2.224;2023-09-19T02:11:22;99808.15;;;13.70;69.13
46682;BME280;34101;53.430;-2.224;2023-09-19T02:13:50;99804.79;;;13.77;68.79
46682;BME280;34101;53.430;-2.224;2023-09-19T02:16:19;99805.83;;;13.68;69.17
46682;BME280;34101;53.430;-2.224;2023-09-19T02:18:47;99799.50;;;13.78;68.91
46682;BME280;34101;53.430;-2.224;2023-09-19T02:21:15;99784.79;;;13.86;68.55
46682;BME280;34101;53.430;-2.224;2023-09-19T02:23:43;99782.78;;;13.78;68.68
46682;BME280;34101;53.430;-2.224;2023-09-19T02:26:11;99784.05;;;13.82;68.69
46682;BME280;34101;53.430;-2.224;2023-09-19T02:28:40;99777.50;;;13.86;68.25
46682;BME280;34101;53.430;-2.224;2023-09-19T02:31:09;99772.99;;;13.87;68.26
46682;BME280;34101;53.430;-2.224;2023-09-19T02:33:36;99772.74;;;13.53;69.41
46682;BME280;34101;53.430;-2.224;2023-09-19T02:36:04;99759.37;;;13.73;68.75
46682;BME280;34101;53.430;-2.224;2023-09-19T02:38:33;99758.24;;;13.60;69.18
46682;BME280;34101;53.430;-2.224;2023-09-19T02:41:00;99751.12;;;13.78;68.92
46682;BME280;34101;53.430;-2.224;2023-09-19T02:43:28;99750.66;;;13.81;68.77
46682;BME280;34101;53.430;-2.224;2023-09-19T02:45:57;99753.17;;;13.71;69.25
46682;BME280;34101;53.430;-2.224;2023-09-19T02:48:25;99753.69;;;13.59;69.65
46682;BME280;34101;53.430;-2.224;2023-09-19T02:50:53;99750.22;;;13.77;68.37
46682;BME280;34101;53.430;-2.224;2023-09-19T02:53:21;99757.41;;;13.71;69.06
46682;BME280;34101;53.430;-2.224;2023-09-19T02:55:48;99756.58;;;13.64;69.37
46682;BME280;34101;53.430;-2.224;2023-09-19T02:58:16;99761.74;;;13.67;68.72
46682;BME280;34101;53.430;-2.224;2023-09-19T03:00:43;99753.50;;;13.19;70.33
46682;BME280;34101;53.430;-2.224;2023-09-19T03:03:11;99754.03;;;13.25;70.78
46682;BME280;34101;53.430;-2.224;2023-09-19T03:05:39;99750.10;;;13.54;69.74
46682;BME280;34101;53.430;-2.224;2023-09-19T03:08:08;99743.87;;;13.32;71.06
46682;BME280;34101;53.430;-2.224;2023-09-19T03:10:35;99738.20;;;13.44;71.54
46682;BME280;34101;53.430;-2.224;2023-09-19T03:13:03;99731.01;;;13.22;72.11
46682;BME280;34101;53.430;-2.224;2023-09-19T03:15:31;99732.32;;;13.04;73.32
46682;BME280;34101;53.430;-2.224;2023-09-19T03:17:58;99726.58;;;13.11;73.13
46682;BME280;34101;53.430;-2.224;2023-09-19T03:20:26;99729.49;;;13.14;74.01
46682;BME280;34101;53.430;-2.224;2023-09-19T03:22:55;99731.67;;;13.17;74.13
46682;BME280;34101;53.430;-2.224;2023-09-19T03:25:23;99727.34;;;13.16;74.18
46682;BME280;34101;53.430;-2.224;2023-09-19T03:27:51;99720.70;;;13.13;74.64
46682;BME280;34101;53.430;-2.224;2023-09-19T03:30:19;99718.13;;;13.01;74.90
46682;BME280;34101;53.430;-2.224;2023-09-19T03:32:47;99718.85;;;12.97;75.52
46682;BME280;34101;53.430;-2.224;2023-09-19T03:35:15;99718.85;;;12.97;75.55
46682;BME280;34101;53.430;-2.224;2023-09-19T03:37:42;99718.49;;;12.90;76.73
46682;BME280;34101;53.430;-2.224;2023-09-19T03:40:10;99717.62;;;12.63;77.53
46682;BME280;34101;53.430;-2.224;2023-09-19T03:42:38;99711.76;;;12.45;78.50
46682;BME280;34101;53.430;-2.224;2023-09-19T03:45:06;99713.10;;;12.28;79.72
46682;BME280;34101;53.430;-2.224;2023-09-19T03:47:34;99699.04;;;12.60;78.67
46682;BME280;34101;53.430;-2.224;2023-09-19T03:50:02;99684.32;;;12.85;77.53
46682;BME280;34101;53.430;-2.224;2023-09-19T03:52:30;99678.36;;;12.78;77.76
46682;BME280;34101;53.430;-2.224;2023-09-19T03:54:57;99669.85;;;12.73;77.54
46682;BME280;34101;53.430;-2.224;2023-09-19T03:57:25;99669.90;;;12.83;77.51
46682;BME280;34101;53.430;-2.224;2023-09-19T03:59:53;99662.66;;;12.76;77.67
46682;BME280;34101;53.430;-2.224;2023-09-19T04:02:25;99665.46;;;12.86;77.16
46682;BME280;34101;53.430;-2.224;2023-09-19T04:04:55;99668.86;;;12.81;77.98
46682;BME280;34101;53.430;-2.224;2023-09-19T04:07:23;99668.45;;;12.88;77.91
46682;BME280;34101;53.430;-2.224;2023-09-19T04:09:50;99670.06;;;12.97;77.21
46682;BME280;34101;53.430;-2.224;2023-09-19T04:12:19;99665.85;;;12.88;77.74
46682;BME280;34101;53.430;-2.224;2023-09-19T04:14:46;99659.99;;;12.83;78.24
46682;BME280;34101;53.430;-2.224;2023-09-19T04:17:14;99651.02;;;12.69;79.24
46682;BME280;34101;53.430;-2.224;2023-09-19T04:19:41;99637.30;;;12.74;78.96
46682;BME280;34101;53.430;-2.224;2023-09-19T04:22:09;99621.51;;;12.78;79.06
46682;BME280;34101;53.430;-2.224;2023-09-19T04:24:36;99613.80;;;12.75;79.29
46682;BME280;34101;53.430;-2.224;2023-09-19T04:27:04;99598.90;;;12.78;79.39
46682;BME280;34101;53.430;-2.224;2023-09-19T04:29:32;99590.48;;;12.77;79.52
46682;BME280;34101;53.430;-2.224;2023-09-19T04:32:00;99587.52;;;12.75;79.58
46682;BME280;34101;53.430;-2.224;2023-09-19T04:34:27;99571.85;;;12.72;79.92
46682;BME280;34101;53.430;-2.224;2023-09-19T04:36:55;99569.70;;;12.79;80.08
46682;BME280;34101;53.430;-2.224;2023-09-19T04:39:22;99556.39;;;12.76;79.95
46682;BME280;34101;53.430;-2.224;2023-09-19T04:41:49;99549.43;;;12.81;80.11
46682;BME280;34101;53.430;-2.224;2023-09-19T04:44:17;99539.23;;;12.80;80.15
46682;BME280;34101;53.430;-2.224;2023-09-19T04:46:44;99515.80;;;12.81;80.08
46682;BME280;34101;53.430;-2.224;2023-09-19T04:49:11;99509.37;;;12.90;80.08
46682;BME280;34101;53.430;-2.224;2023-09-19T04:51:39;99502.80;;;12.87;79.84
46682;BME280;34101;53.430;-2.224;2023-09-19T04:54:07;99489.30;;;12.82;79.98
46682;BME280;34101;53.430;-2.224;2023-09-19T04:56:34;99478.00;;;12.85;80.34
46682;BME280;34101;53.430;-2.224;2023-09-19T04:59:02;99471.49;;;12.89;80.26
46682;BME280;34101;53.430;-2.224;2023-09-19T05:01:29;99468.32;;;12.82;80.47
46682;BME280;34101;53.430;-2.224;2023-09-19T05:03:57;99458.99;;;12.83;80.13
46682;BME280;34101;53.430;-2.224;2023-09-19T05:06:24;99447.53;;;12.80;80.62
46682;BME280;34101;53.430;-2.224;2023-09-19T05:08:51;99437.93;;;12.76;80.95
46682;BME280;34101;53.430;-2.224;2023-09-19T05:11:19;99431.52;;;12.77;81.37
46682;BME280;34101;53.430;-2.224;2023-09-19T05:13:47;99423.76;;;12.82;81.37
46682;BME280;34101;53.430;-2.224;2023-09-19T05:16:14;99416.31;;;12.69;81.91
46682;BME280;34101;53.430;-2.224;2023-09-19T05:18:41;99415.29;;;12.72;82.17
46682;BME280;34101;53.430;-2.224;2023-09-19T05:21:09;99398.19;;;12.87;81.92
46682;BME280;34101;53.430;-2.224;2023-09-19T05:23:36;99385.40;;;12.98;81.82
46682;BME280;34101;53.430;-2.224;2023-09-19T05:26:04;99372.47;;;12.96;82.43
46682;BME280;34101;53.430;-2.224;2023-09-19T05:28:31;99361.98;;;12.98;82.32
46682;BME280;34101;53.430;-2.224;2023-09-19T05:31:00;99351.76;;;13.03;82.48
46682;BME280;34101;53.430;-2.224;2023-09-19T05:33:28;99354.43;;;12.89;83.34
46682;BME280;34101;53.430;-2.224;2023-09-19T05:35:55;99341.68;;;12.88;83.80
46682;BME280;34101;53.430;-2.224;2023-09-19T05:38:22;99335.46;;;13.02;83.51
46682;BME280;34101;53.430;-2.224;2023-09-19T05:40:50;99322.78;;;12.90;84.00
46682;BME280;34101;53.430;-2.224;2023-09-19T05:43:17;99317.58;;;12.84;85.63
46682;BME280;34101;53.430;-2.224;2023-09-19T05:45:44;99314.25;;;13.15;84.70
46682;BME280;34101;53.430;-2.224;2023-09-19T05:48:13;99318.24;;;13.01;85.18
46682;BME280;34101;53.430;-2.224;2023-09-19T05:50:41;99315.68;;;13.09;85.04
46682;BME280;34101;53.430;-2.224;2023-09-19T05:53:08;99302.21;;;13.21;84.78
46682;BME280;34101;53.430;-2.224;2023-09-19T05:55:36;99303.63;;;13.18;85.23
46682;BME280;34101;53.430;-2.224;2023-09-19T05:58:03;99294.17;;;13.30;85.01
46682;BME280;34101;53.430;-2.224;2023-09-19T06:00:31;99292.68;;;13.24;85.31
46682;BME280;34101;53.430;-2.224;2023-09-19T06:02:59;99281.16;;;13.36;85.51
46682;BME280;34101;53.430;-2.224;2023-09-19T06:05:27;99279.11;;;13.21;86.32
46682;BME280;34101;53.430;-2.224;2023-09-19T06:07:55;99268.81;;;13.32;85.77
46682;BME280;34101;53.430;-2.224;2023-09-19T06:10:24;99268.44;;;13.52;85.51
46682;BME280;34101;53.430;-2.224;2023-09-19T06:12:51;99253.25;;;13.19;87.48
46682;BME280;34101;53.430;-2.224;2023-09-19T06:15:19;99253.34;;;13.25;87.75
46682;BME280;34101;53.430;-2.224;2023-09-19T06:17:47;99248.39;;;13.55;86.56
46682;BME280;34101;53.430;-2.224;2023-09-19T06:20:15;99249.75;;;13.57;86.27
46682;BME280;34101;53.430;-2.224;2023-09-19T06:22:44;99245.63;;;13.61;86.33
46682;BME280;34101;53.430;-2.224;2023-09-19T06:25:13;99227.90;;;13.73;85.94
46682;BME280;34101;53.430;-2.224;2023-09-19T06:27:41;99221.80;;;13.80;85.76
46682;BME280;34101;53.430;-2.224;2023-09-19T06:30:09;99214.28;;;13.85;85.69
46682;BME280;34101;53.430;-2.224;2023-09-19T06:32:37;99206.36;;;14.03;85.09
46682;BME280;34101;53.430;-2.224;2023-09-19T06:35:06;99198.34;;;13.91;85.84
46682;BME280;34101;53.430;-2.224;2023-09-19T06:37:33;99198.51;;;13.95;85.74
46682;BME280;34101;53.430;-2.224;2023-09-19T06:40:00;99191.81;;;13.78;86.53
46682;BME280;34101;53.430;-2.224;2023-09-19T06:42:27;99192.96;;;13.54;87.80
46682;BME280;34101;53.430;-2.224;2023-09-19T06:44:55;99187.60;;;13.93;86.78
46682;BME280;34101;53.430;-2.224;2023-09-19T06:47:22;99180.98;;;13.85;86.57
46682;BME280;34101;53.430;-2.224;2023-09-19T06:49:50;99193.19;;;14.04;86.60
46682;BME280;34101;53.430;-2.224;2023-09-19T06:52:17;99180.98;;;14.22;85.97
46682;BME280;34101;53.430;-2.224;2023-09-19T06:54:44;99186.60;;;14.04;86.52
46682;BME280;34101;53.430;-2.224;2023-09-19T06:57:12;99150.23;;;14.15;86.52
46682;BME280;34101;53.430;-2.224;2023-09-19T06:59:39;99149.75;;;13.90;87.52
46682;BME280;34101;53.430;-2.224;2023-09-19T07:02:07;99151.85;;;13.91;87.54
46682;BME280;34101;53.430;-2.224;2023-09-19T07:04:34;99152.91;;;14.05;87.54
46682;BME280;34101;53.430;-2.224;2023-09-19T07:07:01;99136.18;;;13.93;87.95
46682;BME280;34101;53.430;-2.224;2023-09-19T07:09:34;99134.48;;;13.82;89.14
46682;BME280;34101;53.430;-2.224;2023-09-19T07:12:01;99132.07;;;13.91;89.28
46682;BME280;34101;53.430;-2.224;2023-09-19T07:14:29;99125.76;;;14.11;88.39
46682;BME280;34101;53.430;-2.224;2023-09-19T07:16:57;99116.18;;;14.03;87.97
46682;BME280;34101;53.430;-2.224;2023-09-19T07:19:30;99136.50;;;14.17;88.28
46682;BME280;34101;53.430;-2.224;2023-09-19T07:21:58;99142.53;;;14.16;88.26
46682;BME280;34101;53.430;-2.224;2023-09-19T07:24:25;99127.70;;;14.27;88.24
46682;BME280;34101;53.430;-2.224;2023-09-19T07:26:52;99115.74;;;14.49;87.64
46682;BME280;34101;53.430;-2.224;2023-09-19T07:29:21;99120.24;;;14.43;88.14
46682;BME280;34101;53.430;-2.224;2023-09-19T07:31:48;99108.56;;;14.50;87.84
46682;BME280;34101;53.430;-2.224;2023-09-19T07:34:16;99119.45;;;14.37;87.97
46682;BME280;34101;53.430;-2.224;2023-09-19T07:36:43;99090.93;;;14.53;87.88
46682;BME280;34101;53.430;-2.224;2023-09-19T07:39:10;99097.82;;;14.62;86.98
46682;BME280;34101;53.430;-2.224;2023-09-19T07:41:38;99088.42;;;14.47;87.34
46682;BME280;34101;53.430;-2.224;2023-09-19T07:44:05;99095.54;;;14.80;86.80
46682;BME280;34101;53.430;-2.224;2023-09-19T07:46:34;99080.03;;;14.71;87.47
46682;BME280;34101;53.430;-2.224;2023-09-19T07:49:02;99081.56;;;14.85;86.93
46682;BME280;34101;53.430;-2.224;2023-09-19T07:51:29;99075.94;;;14.48;88.79
46682;BME280;34101;53.430;-2.224;2023-09-19T07:53:58;99075.66;;;14.75;87.58
46682;BME280;34101;53.430;-2.224;2023-09-19T07:56:25;99085.55;;;14.87;87.25
46682;BME280;34101;53.430;-2.224;2023-09-19T07:58:53;99075.98;;;15.10;86.99
46682;BME280;34101;53.430;-2.224;2023-09-19T08:01:20;99083.11;;;15.08;86.99
46682;BME280;34101;53.430;-2.224;2023-09-19T08:03:48;99079.87;;;14.74;88.09
46682;BME280;34101;53.430;-2.224;2023-09-19T08:06:15;99088.18;;;14.83;87.92
46682;BME280;34101;53.430;-2.224;2023-09-19T08:08:42;99087.36;;;15.21;86.70
46682;BME280;34101;53.430;-2.224;2023-09-19T08:11:10;99091.59;;;15.34;85.98
46682;BME280;34101;53.430;-2.224;2023-09-19T08:13:41;99093.46;;;15.15;87.18
46682;BME280;34101;53.430;-2.224;2023-09-19T08:16:10;99078.11;;;15.48;85.36
46682;BME280;34101;53.430;-2.224;2023-09-19T08:18:38;99084.63;;;15.53;85.15
46682;BME280;34101;53.430;-2.224;2023-09-19T08:21:07;99076.70;;;15.49;85.25
46682;BME280;34101;53.430;-2.224;2023-09-19T08:23:35;99083.53;;;15.48;85.65
46682;BME280;34101;53.430;-2.224;2023-09-19T08:26:03;99100.85;;;15.26;86.52
46682;BME280;34101;53.430;-2.224;2023-09-19T08:28:33;99091.88;;;15.61;84.84
46682;BME280;34101;53.430;-2.224;2023-09-19T08:31:02;99096.75;;;15.89;84.20
46682;BME280;34101;53.430;-2.224;2023-09-19T08:33:31;99101.95;;;15.87;84.47
46682;BME280;34101;53.430;-2.224;2023-09-19T08:35:59;99102.02;;;16.05;83.79
46682;BME280;34101;53.430;-2.224;2023-09-19T08:38:27;99104.71;;;16.07;83.52
46682;BME280;34101;53.430;-2.224;2023-09-19T08:40:57;99101.23;;;15.95;83.84
46682;BME280;34101;53.430;-2.224;2023-09-19T08:43:26;99102.94;;;15.55;86.10
46682;BME280;34101;53.430;-2.224;2023-09-19T08:46:02;99116.44;;;15.80;85.70
46682;BME280;34101;53.430;-2.224;2023-09-19T08:48:34;99113.73;;;15.91;85.64
46682;BME280;34101;53.430;-2.224;2023-09-19T08:51:07;99111.85;;;16.17;84.29
46682;BME280;34101;53.430;-2.224;2023-09-19T08:53:42;99108.66;;;16.42;83.00
46682;BME280;34101;53.430;-2.224;2023-09-19T08:56:17;99111.43;;;16.19;84.30
46682;BME280;34101;53.430;-2.224;2023-09-19T08:58:48;99102.45;;;16.17;84.45
46682;BME280;34101;53.430;-2.224;2023-09-19T09:01:17;99108.74;;;16.39;84.46
46682;BME280;34101;53.430;-2.224;2023-09-19T09:03:46;99104.14;;;16.46;83.54
46682;BME280;34101;53.430;-2.224;2023-09-19T09:06:17;99105.12;;;16.58;83.19
46682;BME280;34101;53.430;-2.224;2023-09-19T09:08:45;99108.89;;;16.54;83.50
46682;BME280;34101;53.430;-2.224;2023-09-19T09:11:14;99109.02;;;16.71;83.32
46682;BME280;34101;53.430;-2.224;2023-09-19T09:13:43;99113.06;;;16.68;83.15
46682;BME280;34101;53.430;-2.224;2023-09-19T09:16:10;99120.18;;;16.76;83.03
46682;BME280;34101;53.430;-2.224;2023-09-19T09:18:38;99122.65;;;16.93;82.59
46682;BME280;34101;53.430;-2.224;2023-09-19T09:21:06;99113.22;;;17.06;81.78
46682;BME280;34101;53.430;-2.224;2023-09-19T09:23:33;99118.97;;;16.91;83.14
46682;BME280;34101;53.430;-2.224;2023-09-19T09:26:01;99118.32;;;16.89;83.56
46682;BME280;34101;53.430;-2.224;2023-09-19T09:28:29;99126.82;;;16.62;84.72
46682;BME280;34101;53.430;-2.224;2023-09-19T09:30:57;99120.36;;;16.67;84.53
46682;BME280;34101;53.430;-2.224;2023-09-19T09:33:25;99116.04;;;16.94;83.63
46682;BME280;34101;53.430;-2.224;2023-09-19T09:35:55;99119.31;;;17.04;83.27
46682;BME280;34101;53.430;-2.224;2023-09-19T09:38:24;99118.33;;;16.95;83.63
46682;BME280;34101;53.430;-2.224;2023-09-19T09:40:53;99124.33;;;17.33;82.96
46682;BME280;34101;53.430;-2.224;2023-09-19T09:43:26;99120.74;;;17.05;83.75
46682;BME280;34101;53.430;-2.224;2023-09-19T09:46:09;99118.37;;;17.08;83.85
46682;BME280;34101;53.430;-2.224;2023-09-19T09:48:36;99128.40;;;17.31;83.97
46682;BME280;34101;53.430;-2.224;2023-09-19T09:51:04;99127.10;;;17.33;83.57
46682;BME280;34101;53.430;-2.224;2023-09-19T09:53:31;99130.29;;;17.35;84.06
46682;BME280;34101;53.430;-2.224;2023-09-19T09:56:01;99127.80;;;17.35;84.43
46682;BME280;34101;53.430;-2.224;2023-09-19T09:58:28;99123.87;;;17.35;84.45
46682;BME280;34101;53.430;-2.224;2023-09-19T10:00:56;99128.68;;;17.31;84.76
46682;BME280;34101;53.430;-2.224;2023-09-19T10:03:31;99138.27;;;17.72;83.02
46682;BME280;34101;53.430;-2.224;2023-09-19T10:05:59;99125.54;;;17.58;83.89
46682;BME280;34101;53.430;-2.224;2023-09-19T10:08:27;99139.59;;;17.49;84.15
46682;BME280;34101;53.430;-2.224;2023-09-19T10:10:54;99139.48;;;17.63;83.70
46682;BME280;34101;53.430;-2.224;2023-09-19T10:13:22;99143.65;;;17.39;85.34
46682;BME280;34101;53.430;-2.224;2023-09-19T10:15:54;99142.48;;;17.55;84.01
46682;BME280;34101;53.430;-2.224;2023-09-19T10:18:24;99144.40;;;17.78;83.45
46682;BME280;34101;53.430;-2.224;2023-09-19T10:20:52;99144.82;;;17.71;83.74
46682;BME280;34101;53.430;-2.224;2023-09-19T10:23:21;99146.95;;;17.72;84.22
46682;BME280;34101;53.430;-2.224;2023-09-19T10:25:49;99155.47;;;17.57;84.97
46682;BME280;34101;53.430;-2.224;2023-09-19T10:28:18;99152.73;;;17.63;85.03
46682;BME280;34101;53.430;-2.224;2023-09-19T10:30:48;99156.17;;;17.70;84.86
46682;BME280;34101;53.430;-2.224;2023-09-19T10:33:17;99164.61;;;17.65;85.70
46682;BME280;34101;53.430;-2.224;2023-09-19T10:35:46;99157.62;;;17.46;86.89
46682;BME280;34101;53.430;-2.224;2023-09-19T10:38:16;99158.30;;;17.58;86.44
46682;BME280;34101;53.430;-2.224;2023-09-19T10:40:53;99162.48;;;17.70;86.15
46682;BME280;34101;53.430;-2.224;2023-09-19T10:43:29;99162.10;;;17.44;87.40
46682;BME280;34101;53.430;-2.224;2023-09-19T10:46:01;99167.53;;;17.54;87.44
46682;BME280;34101;53.430;-2.224;2023-09-19T10:48:29;99163.60;;;17.80;86.99
46682;BME280;34101;53.430;-2.224;2023-09-19T10:51:01;99168.51;;;17.95;86.12
46682;BME280;34101;53.430;-2.224;2023-09-19T10:53:39;99175.94;;;17.82;87.02
46682;BME280;34101;53.430;-2.224;2023-09-19T10:56:08;99176.05;;;17.84;86.95
46682;BME280;34101;53.430;-2.224;2023-09-19T10:58:35;99176.61;;;17.78;87.41
46682;BME280;34101;53.430;-2.224;2023-09-19T11:01:03;99182.08;;;17.91;87.25
46682;BME280;34101;53.430;-2.224;2023-09-19T11:03:30;99184.83;;;17.82;87.54
46682;BME280;34101;53.430;-2.224;2023-09-19T11:06:04;99190.70;;;17.81;87.21
46682;BME280;34101;53.430;-2.224;2023-09-19T11:08:59;99191.82;;;17.74;88.52
46682;BME280;34101;53.430;-2.224;2023-09-19T11:11:59;99189.55;;;17.88;87.98
46682;BME280;34101;53.430;-2.224;2023-09-19T11:14:42;99191.41;;;17.96;87.88
46682;BME280;34101;53.430;-2.224;2023-09-19T11:17:42;99184.47;;;17.91;87.61
46682;BME280;34101;53.430;-2.224;2023-09-19T11:20:26;99185.75;;;18.04;88.00
46682;BME280;34101;53.430;-2.224;2023-09-19T11:23:27;99190.06;;;17.92;88.12
46682;BME280;34101;53.430;-2.224;2023-09-19T11:25:54;99191.72;;;18.17;87.55
46682;BME280;34101;53.430;-2.224;2023-09-19T11:28:37;99194.07;;;18.22;87.06
46682;BME280;34101;53.430;-2.224;2023-09-19T11:31:46;99190.60;;;18.04;87.77
46682;BME280;34101;53.430;-2.224;2023-09-19T11:34:47;99190.85;;;18.09;87.73
46682;BME280;34101;53.430;-2.224;2023-09-19T11:38:57;99190.86;;;18.19;87.39
46682;BME280;34101;53.430;-2.224;2023-09-19T11:41:41;99193.63;;;18.33;87.20
46682;BME280;34101;53.430;-2.224;2023-09-19T11:44:41;99199.08;;;18.10;87.54
46682;BME280;34101;53.430;-2.224;2023-09-19T11:47:08;99198.58;;;18.19;87.80
46682;BME280;34101;53.430;-2.224;2023-09-19T11:49:40;99198.02;;;18.26;87.24
46682;BME280;34101;53.430;-2.224;2023-09-19T11:52:07;99199.87;;;17.99;88.48
46682;BME280;34101;53.430;-2.224;2023-09-19T11:54:36;99203.09;;;17.88;88.87
46682;BME280;34101;53.430;-2.224;2023-09-19T11:57:04;99200.34;;;17.79;89.59
46682;BME280;34101;53.430;-2.224;2023-09-19T11:59:31;99208.13;;;17.98;89.62
46682;BME280;34101;53.430;-2.224;2023-09-19T12:02:03;99202.07;;;18.10;88.99
46682;BME280;34101;53.430;-2.224;2023-09-19T12:04:35;99204.68;;;18.26;88.20
46682;BME280;34101;53.430;-2.224;2023-09-19T12:07:02;99205.09;;;18.20;87.96
46682;BME280;34101;53.430;-2.224;2023-09-19T12:09:29;99222.57;;;18.03;89.26
46682;BME280;34101;53.430;-2.224;2023-09-19T12:11:57;99211.40;;;17.74;90.63
46682;BME280;34101;53.430;-2.224;2023-09-19T12:14:26;99214.78;;;17.63;91.23
46682;BME280;34101;53.430;-2.224;2023-09-19T12:16:55;99210.12;;;17.80;90.73
46682;BME280;34101;53.430;-2.224;2023-09-19T12:19:27;99213.91;;;17.91;90.43
46682;BME280;34101;53.430;-2.224;2023-09-19T12:21:57;99214.70;;;17.95;90.68
46682;BME280;34101;53.430;-2.224;2023-09-19T12:24:26;99217.21;;;17.93;90.23
46682;BME280;34101;53.430;-2.224;2023-09-19T12:26:54;99216.21;;;17.97;89.89
46682;BME280;34101;53.430;-2.224;2023-09-19T12:29:22;99217.01;;;18.04;89.31
46682;BME280;34101;53.430;-2.224;2023-09-19T12:31:51;99221.10;;;17.97;89.69
46682;BME280;34101;53.430;-2.224;2023-09-19T12:34:21;99217.76;;;18.01;90.04
46682;BME280;34101;53.430;-2.224;2023-09-19T12:36:49;99211.43;;;18.14;89.33
46682;BME280;34101;53.430;-2.224;2023-09-19T12:39:24;99223.30;;;18.13;89.62
46682;BME280;34101;53.430;-2.224;2023-09-19T12:41:52;99219.02;;;18.17;89.44
46682;BME280;34101;53.430;-2.224;2023-09-19T12:44:21;99218.54;;;18.17;89.15
46682;BME280;34101;53.430;-2.224;2023-09-19T12:46:49;99215.65;;;18.20;88.83
46682;BME280;34101;53.430;-2.224;2023-09-19T12:49:17;99210.50;;;17.91;90.45
46682;BME280;34101;53.430;-2.224;2023-09-19T12:51:45;99215.68;;;17.94;90.63
46682;BME280;34101;53.430;-2.224;2023-09-19T12:54:13;99220.95;;;17.92;90.39
46682;BME280;34101;53.430;-2.224;2023-09-19T12:56:40;99209.54;;;18.19;89.60
46682;BME280;34101;53.430;-2.224;2023-09-19T12:59:08;99211.45;;;18.15;89.71
46682;BME280;34101;53.430;-2.224;2023-09-19T13:01:35;99218.40;;;17.96;90.92
46682;BME280;34101;53.430;-2.224;2023-09-19T13:04:20;99216.38;;;18.32;89.35
46682;BME280;34101;53.430;-2.224;2023-09-19T13:06:47;99208.54;;;17.93;90.33